createdAt,value
2019-03-19T00:02:12.802Z,5.17
2019-03-19T00:04:44.216Z,5.05
2019-03-19T00:07:15.546Z,4.90
2019-03-19T00:09:46.815Z,5.07
2019-03-19T00:12:19.596Z,5.20
2019-03-19T00:14:50.891Z,5.00
2019-03-19T00:17:22.289Z,4.57
2019-03-19T00:19:53.587Z,5.37
2019-03-19T00:22:25.852Z,5.37
2019-03-19T00:24:57.393Z,4.75
2019-03-19T00:27:28.733Z,5.13
2019-03-19T00:30:00.020Z,5.20
2019-03-19T00:32:31.498Z,4.60
2019-03-19T00:35:02.960Z,4.40
2019-03-19T00:37:34.236Z,4.40
2019-03-19T00:40:10.569Z,4.90
2019-03-19T00:42:41.913Z,4.85
2019-03-19T00:45:14.667Z,4.70
2019-03-19T00:47:48.860Z,4.43
2019-03-19T00:50:20.220Z,4.33
2019-03-19T00:52:51.623Z,4.70
2019-03-19T00:55:22.877Z,5.50
2019-03-19T00:57:54.251Z,5.20
2019-03-19T01:00:25.467Z,4.97
2019-03-19T01:02:56.759Z,5.03
2019-03-19T01:05:28.212Z,4.70
2019-03-19T01:07:59.656Z,5.17
2019-03-19T01:10:31.131Z,5.67
2019-03-19T01:13:05.954Z,5.27
2019-03-19T01:15:37.241Z,5.77
2019-03-19T01:18:10.360Z,4.80
2019-03-19T01:20:41.820Z,4.57
2019-03-19T01:23:13.163Z,4.83
2019-03-19T01:25:55.286Z,5.23
2019-03-19T01:28:17.703Z,5.27
2019-03-19T01:30:50.003Z,6.33
2019-03-19T01:33:21.391Z,7.30
2019-03-19T01:35:52.623Z,7.97
2019-03-19T01:38:23.906Z,8.60
2019-03-19T01:40:55.119Z,8.43
2019-03-19T01:43:26.416Z,8.30
2019-03-19T01:45:57.646Z,7.93
2019-03-19T01:48:30.205Z,7.00
2019-03-19T01:51:01.501Z,7.13
2019-03-19T01:53:32.773Z,6.87
2019-03-19T01:56:05.458Z,7.60
2019-03-19T01:58:37.017Z,7.93
2019-03-19T02:01:08.440Z,7.63
2019-03-19T02:03:39.707Z,6.90
2019-03-19T02:06:11.159Z,6.47
2019-03-19T02:08:42.431Z,7.47
2019-03-19T02:11:13.655Z,7.73
2019-03-19T02:13:44.957Z,7.03
2019-03-19T02:16:16.285Z,6.90
2019-03-19T02:18:47.657Z,6.80
2019-03-19T02:21:19.112Z,7.37
2019-03-19T02:23:50.400Z,6.07
2019-03-19T02:26:21.679Z,5.43
2019-03-19T02:28:52.970Z,5.30
2019-03-19T02:31:24.498Z,4.80
2019-03-19T02:33:55.710Z,5.23
2019-03-19T02:36:27.056Z,4.70
2019-03-19T02:38:58.351Z,3.60
2019-03-19T02:41:29.644Z,3.67
2019-03-19T02:44:00.863Z,3.60
2019-03-19T02:46:32.160Z,4.00
2019-03-19T02:49:04.467Z,3.20
2019-03-19T02:51:45.245Z,4.97
2019-03-19T02:54:16.654Z,4.97
2019-03-19T02:56:48.112Z,4.27
2019-03-19T02:59:19.521Z,3.80
2019-03-19T03:01:50.919Z,3.67
2019-03-19T03:04:31.502Z,3.23
2019-03-19T03:07:04.118Z,3.10
2019-03-19T03:09:35.450Z,3.47
2019-03-19T03:12:07.802Z,2.97
2019-03-19T03:14:39.175Z,3.10
2019-03-19T03:17:10.538Z,3.23
2019-03-19T03:19:41.807Z,3.20
2019-03-19T03:22:13.030Z,2.80
2019-03-19T03:24:44.304Z,2.70
2019-03-19T03:27:15.522Z,2.93
2019-03-19T03:29:46.864Z,2.97
2019-03-19T03:32:18.160Z,2.77
2019-03-19T03:34:49.505Z,5.43
2019-03-19T03:37:21.015Z,3.83
2019-03-19T03:39:52.303Z,3.60
2019-03-19T03:42:23.526Z,2.60
2019-03-19T03:44:54.882Z,3.13
2019-03-19T03:47:26.097Z,3.23
2019-03-19T03:49:57.432Z,2.73
2019-03-19T03:52:28.654Z,3.43
2019-03-19T03:55:00.086Z,2.73
2019-03-19T03:57:31.475Z,3.10
2019-03-19T04:00:06.212Z,3.03
2019-03-19T04:02:40.950Z,2.90
2019-03-19T04:05:14.242Z,2.80
2019-03-19T04:07:45.826Z,3.10
2019-03-19T04:10:18.739Z,3.33
2019-03-19T04:12:54.001Z,2.63
2019-03-19T04:15:25.616Z,3.30
2019-03-19T04:17:57.018Z,2.80
2019-03-19T04:20:28.313Z,3.30
2019-03-19T04:23:00.218Z,3.83
2019-03-19T04:25:31.517Z,3.80
2019-03-19T04:28:03.116Z,12.77
2019-03-19T04:30:34.842Z,5.40
2019-03-19T04:33:07.310Z,2.90
2019-03-19T04:35:45.701Z,3.27
2019-03-19T04:38:17.444Z,3.50
2019-03-19T04:40:49.715Z,2.83
2019-03-19T04:43:21.464Z,3.37
2019-03-19T04:45:54.591Z,2.93
2019-03-19T04:48:26.096Z,2.77
2019-03-19T04:50:57.313Z,2.83
2019-03-19T04:53:28.761Z,3.17
2019-03-19T04:56:00.182Z,2.77
2019-03-19T04:58:31.457Z,3.33
2019-03-19T05:01:02.684Z,3.27
2019-03-19T05:03:33.957Z,3.03
2019-03-19T05:06:05.633Z,3.43
2019-03-19T05:08:38.789Z,3.13
2019-03-19T05:11:10.410Z,3.20
2019-03-19T05:13:41.699Z,3.60
2019-03-19T05:16:13.153Z,3.07
2019-03-19T05:18:44.533Z,3.00
2019-03-19T05:21:15.896Z,4.50
2019-03-19T05:23:47.151Z,5.73
2019-03-19T05:26:18.516Z,5.23
2019-03-19T05:28:50.804Z,4.50
2019-03-19T05:31:22.051Z,3.73
2019-03-19T05:33:53.471Z,3.43
2019-03-19T05:36:24.714Z,3.30
2019-03-19T05:38:56.088Z,4.07
2019-03-19T05:41:28.384Z,3.33
2019-03-19T05:43:59.659Z,3.50
2019-03-19T05:46:30.973Z,3.87
2019-03-19T05:49:02.256Z,4.00
2019-03-19T05:51:33.621Z,3.67
2019-03-19T05:54:04.959Z,4.17
2019-03-19T05:56:36.254Z,3.63
2019-03-19T05:59:07.703Z,4.07
2019-03-19T06:01:38.945Z,4.10
2019-03-19T06:04:12.341Z,5.40
2019-03-19T06:06:43.564Z,3.97
2019-03-19T06:09:14.867Z,5.20
2019-03-19T06:11:46.223Z,4.70
2019-03-19T06:14:17.761Z,4.20
2019-03-19T06:16:48.991Z,4.83
2019-03-19T06:19:20.343Z,4.70
2019-03-19T06:21:51.647Z,3.97
2019-03-19T06:24:23.240Z,4.30
2019-03-19T06:26:54.641Z,4.17
2019-03-19T06:29:31.657Z,4.23
2019-03-19T06:32:03.044Z,4.00
2019-03-19T06:34:34.330Z,4.30
2019-03-19T06:37:07.330Z,4.43
2019-03-19T06:39:38.766Z,4.00
2019-03-19T06:42:09.992Z,4.83
2019-03-19T06:44:41.337Z,4.37
2019-03-19T06:47:12.636Z,5.13
2019-03-19T06:49:44.034Z,4.50
2019-03-19T06:52:15.642Z,4.33
2019-03-19T06:54:46.938Z,4.37
2019-03-19T06:57:18.234Z,5.10
2019-03-19T06:59:49.530Z,4.60
2019-03-19T07:02:20.995Z,4.60
2019-03-19T07:04:52.353Z,5.10
2019-03-19T07:07:23.655Z,4.87
2019-03-19T07:09:55.063Z,5.33
2019-03-19T07:12:26.434Z,4.63
2019-03-19T07:14:57.804Z,4.77
2019-03-19T07:17:29.037Z,5.97
2019-03-19T07:20:00.495Z,5.83
2019-03-19T07:22:32.816Z,4.83
2019-03-19T07:25:06.872Z,5.30
2019-03-19T07:27:38.248Z,7.67
2019-03-19T07:30:22.106Z,5.73
2019-03-19T07:32:53.554Z,6.03
2019-03-19T07:35:25.002Z,4.80
2019-03-19T07:37:56.235Z,5.30
2019-03-19T07:40:26.473Z,5.70
2019-03-19T07:42:57.821Z,5.20
2019-03-19T07:45:29.126Z,7.40
2019-03-19T07:48:00.441Z,6.33
2019-03-19T07:50:31.723Z,7.53
2019-03-19T07:53:03.029Z,6.00
2019-03-19T07:55:34.255Z,5.40
2019-03-19T07:58:05.754Z,7.97
2019-03-19T08:00:37.187Z,6.10
2019-03-19T08:03:15.915Z,8.35
2019-03-19T08:05:41.491Z,7.27
2019-03-19T08:08:12.724Z,6.40
2019-03-19T08:10:44.036Z,6.92
2019-03-19T08:13:15.320Z,6.75
2019-03-19T08:15:46.551Z,7.70
2019-03-19T08:18:17.919Z,6.55
2019-03-19T08:20:49.284Z,8.13
2019-03-19T08:23:20.544Z,7.12
2019-03-19T08:25:53.387Z,7.33
2019-03-19T08:28:24.719Z,7.97
2019-03-19T08:30:56.023Z,7.72
2019-03-19T08:33:27.266Z,8.17
2019-03-19T08:36:08.784Z,8.78
2019-03-19T08:38:31.507Z,8.10
2019-03-19T08:41:02.818Z,8.45
2019-03-19T08:43:34.248Z,7.72
2019-03-19T08:46:06.682Z,8.60
2019-03-19T08:48:37.955Z,8.20
2019-03-19T08:51:09.335Z,8.35
2019-03-19T08:53:40.639Z,7.70
2019-03-19T08:56:11.872Z,8.65
2019-03-19T08:58:43.151Z,7.50
2019-03-19T09:01:14.420Z,8.15
2019-03-19T09:03:46.748Z,6.97
2019-03-19T09:06:18.122Z,7.25
2019-03-19T09:08:50.420Z,7.47
2019-03-19T09:11:21.787Z,7.45
2019-03-19T09:13:53.087Z,6.80
2019-03-19T09:16:24.499Z,7.03
2019-03-19T09:18:55.731Z,10.00
2019-03-19T09:21:27.131Z,6.87
2019-03-19T09:23:58.668Z,6.05
2019-03-19T09:26:30.243Z,6.15
2019-03-19T09:29:01.480Z,6.37
2019-03-19T09:31:32.769Z,6.47
2019-03-19T09:34:04.215Z,7.03
2019-03-19T09:36:35.800Z,5.80
2019-03-19T09:39:08.591Z,6.47
2019-03-19T09:41:40.080Z,6.25
2019-03-19T09:44:11.320Z,7.05
2019-03-19T09:46:42.807Z,6.53
2019-03-19T09:49:14.035Z,6.80
2019-03-19T09:51:45.319Z,6.53
2019-03-19T09:54:16.551Z,5.65
2019-03-19T09:56:47.988Z,5.90
2019-03-19T09:59:26.783Z,5.35
2019-03-19T10:01:52.327Z,6.33
2019-03-19T10:04:24.783Z,6.30
2019-03-19T10:07:05.736Z,5.90
2019-03-19T10:09:29.471Z,5.70
2019-03-19T10:12:00.810Z,5.70
2019-03-19T10:14:32.055Z,5.58
2019-03-19T10:17:03.562Z,5.37
2019-03-19T10:19:34.881Z,5.40
2019-03-19T10:22:06.298Z,5.87
2019-03-19T10:24:37.668Z,4.97
2019-03-19T10:27:09.090Z,4.37
2019-03-19T10:29:41.376Z,4.87
2019-03-19T10:32:12.781Z,4.55
2019-03-19T10:34:44.010Z,4.08
2019-03-19T10:37:15.357Z,5.70
2019-03-19T10:39:46.615Z,6.22
2019-03-19T10:42:19.529Z,4.87
2019-03-19T10:44:50.967Z,5.05
2019-03-19T10:47:22.352Z,5.80
2019-03-19T10:49:53.611Z,6.58
2019-03-19T10:52:25.308Z,4.78
2019-03-19T10:54:56.561Z,4.47
2019-03-19T10:57:29.379Z,5.03
2019-03-19T11:00:23.444Z,4.58
2019-03-19T11:02:55.411Z,4.05
2019-03-19T11:05:27.213Z,3.90
2019-03-19T11:07:58.599Z,4.12
2019-03-19T11:10:29.923Z,4.17
2019-03-19T11:13:01.356Z,4.05
2019-03-19T11:15:32.777Z,3.77
2019-03-19T11:18:06.696Z,4.25
2019-03-19T11:20:40.797Z,3.60
2019-03-19T11:23:12.259Z,3.90
2019-03-19T11:25:53.913Z,3.92
2019-03-19T11:28:16.815Z,4.10
2019-03-19T11:30:48.129Z,4.50
2019-03-19T11:33:19.419Z,3.87
2019-03-19T11:35:50.767Z,4.15
2019-03-19T11:38:22.171Z,3.70
2019-03-19T11:40:53.489Z,3.90
2019-03-19T11:43:25.763Z,4.20
2019-03-19T11:45:57.289Z,4.03
2019-03-19T11:48:28.603Z,4.10
2019-03-19T11:50:59.905Z,3.90
2019-03-19T11:53:32.035Z,3.60
2019-03-19T11:56:03.361Z,3.50
2019-03-19T11:58:34.677Z,3.42
2019-03-19T12:01:06.641Z,4.00
2019-03-19T12:03:37.938Z,3.95
2019-03-19T12:06:09.398Z,4.62
2019-03-19T12:08:40.789Z,3.95
2019-03-19T12:11:12.147Z,3.60
2019-03-19T12:13:43.526Z,3.83
2019-03-19T12:16:14.893Z,4.30
2019-03-19T12:18:46.131Z,3.40
2019-03-19T12:21:17.403Z,3.02
2019-03-19T12:23:50.343Z,3.65
2019-03-19T12:26:21.650Z,4.17
2019-03-19T12:28:53.038Z,4.10
2019-03-19T12:31:24.491Z,3.62
2019-03-19T12:33:55.935Z,3.35
2019-03-19T12:36:27.220Z,4.10
2019-03-19T12:38:58.614Z,3.98
2019-03-19T12:41:29.839Z,3.92
2019-03-19T12:44:02.224Z,3.27
2019-03-19T12:46:33.608Z,3.52
2019-03-19T12:49:05.130Z,3.52
2019-03-19T12:51:36.454Z,3.62
2019-03-19T12:54:11.346Z,3.30
2019-03-19T12:56:42.737Z,3.52
2019-03-19T12:59:20.195Z,3.05
2019-03-19T13:01:47.095Z,2.98
2019-03-19T13:04:18.474Z,3.02
2019-03-19T13:06:49.722Z,3.50
2019-03-19T13:09:22.248Z,3.22
2019-03-19T13:11:53.602Z,3.47
2019-03-19T13:14:28.768Z,3.58
2019-03-19T13:17:00.220Z,12.68
2019-03-19T13:19:31.530Z,3.50
2019-03-19T13:22:02.784Z,3.50
2019-03-19T13:24:34.159Z,3.80
2019-03-19T13:27:05.537Z,3.55
2019-03-19T13:29:37.825Z,3.40
2019-03-19T13:32:09.116Z,3.37
2019-03-19T13:34:40.434Z,3.10
2019-03-19T13:37:13.599Z,3.20
2019-03-19T13:39:44.907Z,3.90
2019-03-19T13:42:16.219Z,3.25
2019-03-19T13:44:47.461Z,3.62
2019-03-19T13:47:18.778Z,3.50
2019-03-19T13:49:50.075Z,3.37
2019-03-19T13:52:21.495Z,3.40
2019-03-19T13:54:52.933Z,3.17
2019-03-19T13:57:24.171Z,3.22
2019-03-19T13:59:55.478Z,3.55
2019-03-19T14:02:26.721Z,3.50
2019-03-19T14:04:58.132Z,3.75
2019-03-19T14:07:29.376Z,3.22
2019-03-19T14:10:00.765Z,4.53
2019-03-19T14:12:33.637Z,3.15
2019-03-19T14:15:11.441Z,5.58
2019-03-19T14:17:42.818Z,3.27
2019-03-19T14:20:20.239Z,3.60
2019-03-19T14:22:51.624Z,5.50
2019-03-19T14:25:23.078Z,4.55
2019-03-19T14:27:54.466Z,3.95
2019-03-19T14:30:28.998Z,4.25
2019-03-19T14:33:00.610Z,4.65
2019-03-19T14:35:37.402Z,3.52
2019-03-19T14:38:05.152Z,3.45
2019-03-19T14:40:36.526Z,4.30
2019-03-19T14:43:07.913Z,3.35
2019-03-19T14:45:39.468Z,3.55
2019-03-19T14:48:11.023Z,3.45
2019-03-19T14:50:42.393Z,3.58
2019-03-19T14:53:13.846Z,3.77
2019-03-19T14:55:45.674Z,3.92
2019-03-19T14:58:17.019Z,4.00
2019-03-19T15:00:48.490Z,4.08
2019-03-19T15:03:19.793Z,3.80
2019-03-19T15:05:51.251Z,4.60
2019-03-19T15:08:22.557Z,5.67
2019-03-19T15:10:53.858Z,4.35
2019-03-19T15:13:25.106Z,4.40
2019-03-19T15:15:57.650Z,3.80
2019-03-19T15:18:29.305Z,3.52
2019-03-19T15:21:02.948Z,3.02
2019-03-19T15:23:35.212Z,2.72
2019-03-19T15:26:11.139Z,3.05
2019-03-19T15:28:46.247Z,3.42
2019-03-19T15:31:17.667Z,3.58
2019-03-19T15:33:49.129Z,3.22
2019-03-19T15:36:20.622Z,3.25
2019-03-19T15:38:52.892Z,3.35
2019-03-19T15:41:24.209Z,3.30
2019-03-19T15:43:55.600Z,3.42
2019-03-19T15:46:27.130Z,3.15
2019-03-19T15:49:00.443Z,3.45
2019-03-19T15:51:31.649Z,3.20
2019-03-19T15:54:06.618Z,3.27
2019-03-19T15:56:40.532Z,3.27
2019-03-19T15:59:12.060Z,3.75
2019-03-19T16:01:43.519Z,2.90
2019-03-19T16:04:14.761Z,3.20
2019-03-19T16:06:46.410Z,2.98
2019-03-19T16:09:17.829Z,2.83
2019-03-19T16:11:49.219Z,2.75
2019-03-19T16:14:20.698Z,2.65
2019-03-19T16:16:52.072Z,2.83
2019-03-19T16:19:23.422Z,3.47
2019-03-19T16:21:56.163Z,3.00
2019-03-19T16:24:27.497Z,2.75
2019-03-19T16:26:59.044Z,3.60
2019-03-19T16:29:31.281Z,3.45
2019-03-19T16:32:02.989Z,3.17
2019-03-19T16:34:34.235Z,3.70
2019-03-19T16:37:05.757Z,2.92
2019-03-19T16:39:37.066Z,3.17
2019-03-19T16:42:08.421Z,2.95
2019-03-19T16:44:39.711Z,3.40
2019-03-19T16:47:11.037Z,4.55
2019-03-19T16:49:42.445Z,4.15
2019-03-19T16:52:15.090Z,3.37
2019-03-19T16:54:46.311Z,3.67
2019-03-19T16:57:18.720Z,3.67
2019-03-19T16:59:49.997Z,3.35
2019-03-19T17:02:21.536Z,3.40
2019-03-19T17:04:52.902Z,3.12
2019-03-19T17:07:24.289Z,3.47
2019-03-19T17:09:55.886Z,3.33
2019-03-19T17:12:27.264Z,3.42
2019-03-19T17:15:11.548Z,4.35
2019-03-19T17:17:42.992Z,5.62
2019-03-19T17:20:18.721Z,3.65
2019-03-19T17:22:50.180Z,4.12
2019-03-19T17:25:28.339Z,4.37
2019-03-19T17:27:59.711Z,15.25
2019-03-19T17:30:33.241Z,6.22
2019-03-19T17:33:04.819Z,4.70
2019-03-19T17:35:36.520Z,5.17
2019-03-19T17:38:08.969Z,5.28
2019-03-19T17:40:44.205Z,4.15
2019-03-19T17:43:15.578Z,3.65
2019-03-19T17:45:46.970Z,3.67
2019-03-19T17:48:18.342Z,3.55
2019-03-19T17:50:54.769Z,3.92
2019-03-19T17:53:26.214Z,3.42
2019-03-19T17:55:58.368Z,3.50
2019-03-19T17:58:29.718Z,3.80
2019-03-19T18:01:01.098Z,3.20
2019-03-19T18:03:32.417Z,2.75
2019-03-19T18:06:03.878Z,3.22
2019-03-19T18:08:35.418Z,3.02
2019-03-19T18:11:06.797Z,3.37
2019-03-19T18:13:40.709Z,4.05
2019-03-19T18:16:12.019Z,4.87
2019-03-19T18:18:45.497Z,3.98
2019-03-19T18:21:16.893Z,4.00
2019-03-19T18:23:48.263Z,3.00
2019-03-19T18:26:19.717Z,4.72
2019-03-19T18:28:51.197Z,5.30
2019-03-19T18:31:22.556Z,5.97
2019-03-19T18:33:53.945Z,6.20
2019-03-19T18:36:25.254Z,4.85
2019-03-19T18:38:56.530Z,5.15
2019-03-19T18:41:27.867Z,5.45
2019-03-19T18:44:00.435Z,5.33
2019-03-19T18:46:31.653Z,4.90
2019-03-19T18:49:02.971Z,5.70
2019-03-19T18:51:34.201Z,6.72
2019-03-19T18:54:05.625Z,6.37
2019-03-19T18:56:36.932Z,7.25
2019-03-19T18:59:08.281Z,7.35
2019-03-19T19:01:39.708Z,7.03
2019-03-19T19:04:11.027Z,6.60
2019-03-19T19:06:42.324Z,6.62
2019-03-19T19:09:13.774Z,6.70
2019-03-19T19:11:45.070Z,8.00
2019-03-19T19:14:16.274Z,7.45
2019-03-19T19:16:47.749Z,7.30
2019-03-19T19:19:19.009Z,11.95
2019-03-19T19:21:50.368Z,16.10
2019-03-19T19:24:21.756Z,16.23
2019-03-19T19:26:57.652Z,14.75
2019-03-19T19:29:29.127Z,10.05
2019-03-19T19:32:00.820Z,9.88
2019-03-19T19:34:32.183Z,10.10
2019-03-19T19:37:03.956Z,10.68
2019-03-19T19:39:35.283Z,9.93
2019-03-19T19:42:06.725Z,10.38
2019-03-19T19:44:38.151Z,14.20
2019-03-19T19:47:09.648Z,14.33
2019-03-19T19:49:41.087Z,13.70
2019-03-19T19:52:12.345Z,14.07
2019-03-19T19:54:43.765Z,10.68
2019-03-19T19:57:15.051Z,10.32
2019-03-19T19:59:46.369Z,11.27
2019-03-19T20:02:17.675Z,11.50
2019-03-19T20:04:49.905Z,14.83
2019-03-19T20:07:23.526Z,23.55
2019-03-19T20:09:58.514Z,35.17
2019-03-19T20:12:29.939Z,31.60
2019-03-19T20:15:01.408Z,35.40
2019-03-19T20:17:33.122Z,33.30
2019-03-19T20:20:16.091Z,15.90
2019-03-19T20:22:54.130Z,22.60
2019-03-19T20:25:25.535Z,15.35
2019-03-19T20:27:56.880Z,13.03
2019-03-19T20:30:30.006Z,12.97
2019-03-19T20:33:01.313Z,9.33
2019-03-19T20:35:32.693Z,11.80
2019-03-19T20:38:03.927Z,10.00
2019-03-19T20:40:35.634Z,11.17
2019-03-19T20:43:07.348Z,18.62
2019-03-19T20:45:38.782Z,11.05
2019-03-19T20:48:10.083Z,12.37
2019-03-19T20:50:42.100Z,9.53
2019-03-19T20:53:13.402Z,7.67
2019-03-19T20:55:49.337Z,6.60
2019-03-19T20:58:21.693Z,6.67
2019-03-19T21:00:53.024Z,6.80
2019-03-19T21:03:35.431Z,7.67
2019-03-19T21:05:59.892Z,6.57
2019-03-19T21:08:31.194Z,8.30
2019-03-19T21:11:02.737Z,8.77
2019-03-19T21:13:34.922Z,6.10
2019-03-19T21:16:06.340Z,6.67
2019-03-19T21:18:37.578Z,9.63
2019-03-19T21:21:09.083Z,10.97
2019-03-19T21:23:40.422Z,7.20
2019-03-19T21:26:11.825Z,7.07
2019-03-19T21:28:43.260Z,6.83
2019-03-19T21:31:17.759Z,5.80
2019-03-19T21:33:51.475Z,5.63
2019-03-19T21:36:22.175Z,5.07
2019-03-19T21:38:53.641Z,4.10
2019-03-19T21:41:25.031Z,3.87
2019-03-19T21:43:56.265Z,4.33
2019-03-19T21:46:30.280Z,4.23
2019-03-19T21:49:02.577Z,4.60
2019-03-19T21:51:37.090Z,5.07
2019-03-19T21:54:08.411Z,4.60
2019-03-19T21:56:40.048Z,4.50
2019-03-19T21:59:11.376Z,5.27
2019-03-19T22:01:44.053Z,5.27
2019-03-19T22:04:18.623Z,4.67
2019-03-19T22:06:50.123Z,4.17
2019-03-19T22:09:21.416Z,4.67
2019-03-19T22:11:52.893Z,4.57
2019-03-19T22:14:24.119Z,4.77
2019-03-19T22:16:55.461Z,5.00
2019-03-19T22:19:27.673Z,4.40
2019-03-19T22:21:59.306Z,4.67
2019-03-19T22:24:30.601Z,4.70
2019-03-19T22:27:02.092Z,4.70
2019-03-19T22:29:33.385Z,4.70
2019-03-19T22:32:04.811Z,4.47
2019-03-19T22:34:36.100Z,4.97
2019-03-19T22:37:07.532Z,5.10
2019-03-19T22:39:38.912Z,5.83
2019-03-19T22:42:10.185Z,5.37
2019-03-19T22:44:41.579Z,4.77
2019-03-19T22:47:13.042Z,5.40
2019-03-19T22:49:44.344Z,5.00
2019-03-19T22:52:15.620Z,5.90
2019-03-19T22:54:46.924Z,8.53
2019-03-19T22:57:18.255Z,9.33
2019-03-19T22:59:50.008Z,8.97
2019-03-19T23:02:22.499Z,8.97
2019-03-19T23:04:53.804Z,9.67
2019-03-19T23:07:25.148Z,9.30
2019-03-19T23:09:56.448Z,8.27
2019-03-19T23:12:28.896Z,7.40
2019-03-19T23:15:00.369Z,6.93
2019-03-19T23:17:31.749Z,7.57
2019-03-19T23:20:03.148Z,7.50
2019-03-19T23:22:34.496Z,7.50
2019-03-19T23:25:07.233Z,7.17
2019-03-19T23:27:39.814Z,7.00
2019-03-19T23:30:19.926Z,6.87
2019-03-19T23:32:51.410Z,7.03
2019-03-19T23:35:22.932Z,6.20
2019-03-19T23:37:54.284Z,5.97
2019-03-19T23:40:25.581Z,6.77
2019-03-19T23:42:56.982Z,6.30
2019-03-19T23:45:28.279Z,7.70
2019-03-19T23:47:59.712Z,7.30
2019-03-19T23:50:31.078Z,6.17
2019-03-19T23:53:02.507Z,6.37
2019-03-19T23:55:33.879Z,7.30
2019-03-19T23:58:05.345Z,5.50
